sensor_id;sensor_type;location;lat;lon;timestamp;P1;durP1;ratioP1;P2;durP2;ratioP2
40515;SDS011;26216;53.724;9.898;2023-03-24T00:01:15;4.30;;;2.70;;
40515;SDS011;26216;53.724;9.898;2023-03-24T00:03:42;4.40;;;3.13;;
40515;SDS011;26216;53.724;9.898;2023-03-24T00:06:12;4.05;;;2.75;;
40515;SDS011;26216;53.724;9.898;2023-03-24T00:08:39;4.35;;;3.00;;
40515;SDS011;26216;53.724;9.898;2023-03-24T00:11:09;5.78;;;2.90;;
40515;SDS011;26216;53.724;9.898;2023-03-24T00:13:36;3.67;;;2.33;;
40515;SDS011;26216;53.724;9.898;2023-03-24T00:16:04;4.78;;;2.55;;
40515;SDS011;26216;53.724;9.898;2023-03-24T00:18:35;4.60;;;2.30;;
40515;SDS011;26216;53.724;9.898;2023-03-24T00:21:05;2.88;;;1.77;;
40515;SDS011;26216;53.724;9.898;2023-03-24T00:23:33;3.85;;;2.00;;
40515;SDS011;26216;53.724;9.898;2023-03-24T00:26:04;3.50;;;1.90;;
40515;SDS011;26216;53.724;9.898;2023-03-24T00:28:33;3.67;;;2.20;;
40515;SDS011;26216;53.724;9.898;2023-03-24T00:31:01;3.65;;;1.95;;
40515;SDS011;26216;53.724;9.898;2023-03-24T00:33:29;3.90;;;1.70;;
40515;SDS011;26216;53.724;9.898;2023-03-24T00:36:17;3.38;;;1.77;;
40515;SDS011;26216;53.724;9.898;2023-03-24T00:38:45;3.42;;;1.70;;
40515;SDS011;26216;53.724;9.898;2023-03-24T00:41:12;4.10;;;1.55;;
40515;SDS011;26216;53.724;9.898;2023-03-24T00:43:38;3.63;;;1.60;;
40515;SDS011;26216;53.724;9.898;2023-03-24T00:46:10;2.70;;;1.40;;
40515;SDS011;26216;53.724;9.898;2023-03-24T00:48:38;2.63;;;1.50;;
40515;SDS011;26216;53.724;9.898;2023-03-24T00:51:06;3.20;;;1.50;;
40515;SDS011;26216;53.724;9.898;2023-03-24T00:53:35;5.13;;;1.80;;
40515;SDS011;26216;53.724;9.898;2023-03-24T00:56:02;2.47;;;1.50;;
40515;SDS011;26216;53.724;9.898;2023-03-24T00:58:28;3.63;;;1.65;;
40515;SDS011;26216;53.724;9.898;2023-03-24T01:00:58;2.03;;;1.25;;
40515;SDS011;26216;53.724;9.898;2023-03-24T01:03:24;3.95;;;1.52;;
40515;SDS011;26216;53.724;9.898;2023-03-24T01:05:54;2.60;;;1.58;;
40515;SDS011;26216;53.724;9.898;2023-03-24T01:08:25;3.65;;;1.50;;
40515;SDS011;26216;53.724;9.898;2023-03-24T01:10:52;1.95;;;1.45;;
40515;SDS011;26216;53.724;9.898;2023-03-24T01:13:19;2.72;;;1.50;;
40515;SDS011;26216;53.724;9.898;2023-03-24T01:15:47;4.38;;;1.95;;
40515;SDS011;26216;53.724;9.898;2023-03-24T01:18:13;2.10;;;1.55;;
40515;SDS011;26216;53.724;9.898;2023-03-24T01:20:40;3.10;;;1.70;;
40515;SDS011;26216;53.724;9.898;2023-03-24T01:23:10;4.18;;;1.75;;
40515;SDS011;26216;53.724;9.898;2023-03-24T01:25:38;3.45;;;1.70;;
40515;SDS011;26216;53.724;9.898;2023-03-24T01:28:09;3.00;;;1.47;;
40515;SDS011;26216;53.724;9.898;2023-03-24T01:30:47;3.90;;;1.85;;
40515;SDS011;26216;53.724;9.898;2023-03-24T01:33:13;6.28;;;1.70;;
40515;SDS011;26216;53.724;9.898;2023-03-24T01:35:40;3.72;;;1.98;;
40515;SDS011;26216;53.724;9.898;2023-03-24T01:38:06;3.40;;;1.63;;
40515;SDS011;26216;53.724;9.898;2023-03-24T01:40:35;2.83;;;1.45;;
40515;SDS011;26216;53.724;9.898;2023-03-24T01:43:03;4.50;;;1.73;;
40515;SDS011;26216;53.724;9.898;2023-03-24T01:45:50;2.13;;;1.30;;
40515;SDS011;26216;53.724;9.898;2023-03-24T01:48:30;3.33;;;1.77;;
40515;SDS011;26216;53.724;9.898;2023-03-24T01:51:42;2.92;;;1.42;;
40515;SDS011;26216;53.724;9.898;2023-03-24T01:54:13;3.75;;;1.58;;
40515;SDS011;26216;53.724;9.898;2023-03-24T01:57:06;2.42;;;1.50;;
40515;SDS011;26216;53.724;9.898;2023-03-24T01:59:38;3.33;;;1.60;;
40515;SDS011;26216;53.724;9.898;2023-03-24T02:02:07;4.20;;;1.70;;
40515;SDS011;26216;53.724;9.898;2023-03-24T02:04:38;3.25;;;1.67;;
40515;SDS011;26216;53.724;9.898;2023-03-24T02:07:10;5.50;;;1.95;;
40515;SDS011;26216;53.724;9.898;2023-03-24T02:09:42;2.72;;;1.48;;
40515;SDS011;26216;53.724;9.898;2023-03-24T02:12:08;3.55;;;1.75;;
40515;SDS011;26216;53.724;9.898;2023-03-24T02:14:34;2.10;;;1.45;;
40515;SDS011;26216;53.724;9.898;2023-03-24T02:22:57;4.20;;;2.08;;
40515;SDS011;26216;53.724;9.898;2023-03-24T02:47:42;3.92;;;2.00;;
40515;SDS011;26216;53.724;9.898;2023-03-24T02:50:58;3.55;;;1.85;;
40515;SDS011;26216;53.724;9.898;2023-03-24T02:53:23;4.35;;;2.22;;
40515;SDS011;26216;53.724;9.898;2023-03-24T02:55:59;2.53;;;1.55;;
40515;SDS011;26216;53.724;9.898;2023-03-24T02:58:34;3.95;;;1.90;;
40515;SDS011;26216;53.724;9.898;2023-03-24T03:01:09;4.80;;;1.85;;
40515;SDS011;26216;53.724;9.898;2023-03-24T03:06:14;3.85;;;1.58;;
40515;SDS011;26216;53.724;9.898;2023-03-24T03:08:56;4.13;;;2.20;;
40515;SDS011;26216;53.724;9.898;2023-03-24T03:11:26;3.30;;;1.77;;
40515;SDS011;26216;53.724;9.898;2023-03-24T03:13:53;3.95;;;1.70;;
40515;SDS011;26216;53.724;9.898;2023-03-24T03:16:31;2.85;;;1.80;;
40515;SDS011;26216;53.724;9.898;2023-03-24T03:19:04;3.70;;;1.95;;
40515;SDS011;26216;53.724;9.898;2023-03-24T03:21:38;3.80;;;1.70;;
40515;SDS011;26216;53.724;9.898;2023-03-24T03:24:08;3.22;;;1.52;;
40515;SDS011;26216;53.724;9.898;2023-03-24T03:26:39;3.63;;;1.58;;
40515;SDS011;26216;53.724;9.898;2023-03-24T03:29:08;3.63;;;1.73;;
40515;SDS011;26216;53.724;9.898;2023-03-24T03:31:46;2.53;;;1.63;;
40515;SDS011;26216;53.724;9.898;2023-03-24T03:37:29;2.90;;;1.65;;
40515;SDS011;26216;53.724;9.898;2023-03-24T03:40:00;3.53;;;1.80;;
40515;SDS011;26216;53.724;9.898;2023-03-24T03:42:35;3.45;;;1.67;;
40515;SDS011;26216;53.724;9.898;2023-03-24T03:45:01;5.60;;;1.83;;
40515;SDS011;26216;53.724;9.898;2023-03-24T03:47:28;3.55;;;1.80;;
40515;SDS011;26216;53.724;9.898;2023-03-24T03:49:55;3.25;;;1.70;;
40515;SDS011;26216;53.724;9.898;2023-03-24T03:52:21;2.92;;;1.60;;
40515;SDS011;26216;53.724;9.898;2023-03-24T03:54:48;3.05;;;1.55;;
40515;SDS011;26216;53.724;9.898;2023-03-24T03:57:15;3.63;;;1.70;;
40515;SDS011;26216;53.724;9.898;2023-03-24T03:59:43;2.45;;;1.60;;
40515;SDS011;26216;53.724;9.898;2023-03-24T04:02:37;2.75;;;1.58;;
40515;SDS011;26216;53.724;9.898;2023-03-24T04:13:24;2.90;;;1.85;;
40515;SDS011;26216;53.724;9.898;2023-03-24T04:18:44;3.92;;;1.70;;
40515;SDS011;26216;53.724;9.898;2023-03-24T04:21:26;3.20;;;1.80;;
40515;SDS011;26216;53.724;9.898;2023-03-24T04:29:14;3.10;;;1.55;;
40515;SDS011;26216;53.724;9.898;2023-03-24T04:31:58;3.47;;;1.73;;
40515;SDS011;26216;53.724;9.898;2023-03-24T04:34:39;3.15;;;1.65;;
40515;SDS011;26216;53.724;9.898;2023-03-24T04:37:17;3.13;;;1.80;;
40515;SDS011;26216;53.724;9.898;2023-03-24T04:39:49;4.05;;;1.80;;
40515;SDS011;26216;53.724;9.898;2023-03-24T04:42:22;2.63;;;1.70;;
40515;SDS011;26216;53.724;9.898;2023-03-24T04:44:55;3.42;;;1.90;;
40515;SDS011;26216;53.724;9.898;2023-03-24T04:47:27;3.38;;;1.98;;
40515;SDS011;26216;53.724;9.898;2023-03-24T04:50:04;3.88;;;2.13;;
40515;SDS011;26216;53.724;9.898;2023-03-24T04:52:33;2.78;;;1.65;;
40515;SDS011;26216;53.724;9.898;2023-03-24T04:54:59;3.53;;;2.10;;
40515;SDS011;26216;53.724;9.898;2023-03-24T04:57:26;2.90;;;1.88;;
40515;SDS011;26216;53.724;9.898;2023-03-24T04:59:52;2.92;;;1.80;;
40515;SDS011;26216;53.724;9.898;2023-03-24T05:02:18;2.72;;;1.92;;
40515;SDS011;26216;53.724;9.898;2023-03-24T05:04:44;2.67;;;1.70;;
40515;SDS011;26216;53.724;9.898;2023-03-24T05:07:10;2.40;;;1.60;;
40515;SDS011;26216;53.724;9.898;2023-03-24T05:09:36;2.50;;;1.50;;
40515;SDS011;26216;53.724;9.898;2023-03-24T05:12:01;3.35;;;1.95;;
40515;SDS011;26216;53.724;9.898;2023-03-24T05:14:27;3.40;;;2.00;;
40515;SDS011;26216;53.724;9.898;2023-03-24T05:16:53;4.18;;;1.90;;
40515;SDS011;26216;53.724;9.898;2023-03-24T05:19:19;3.33;;;2.05;;
40515;SDS011;26216;53.724;9.898;2023-03-24T05:21:45;2.25;;;1.60;;
40515;SDS011;26216;53.724;9.898;2023-03-24T05:24:11;3.28;;;1.90;;
40515;SDS011;26216;53.724;9.898;2023-03-24T05:26:37;3.00;;;1.85;;
40515;SDS011;26216;53.724;9.898;2023-03-24T05:29:03;3.15;;;1.70;;
40515;SDS011;26216;53.724;9.898;2023-03-24T05:31:29;3.63;;;1.50;;
40515;SDS011;26216;53.724;9.898;2023-03-24T05:33:55;2.58;;;1.50;;
40515;SDS011;26216;53.724;9.898;2023-03-24T05:36:21;3.42;;;1.77;;
40515;SDS011;26216;53.724;9.898;2023-03-24T05:38:47;2.75;;;2.08;;
40515;SDS011;26216;53.724;9.898;2023-03-24T05:41:13;2.47;;;1.75;;
40515;SDS011;26216;53.724;9.898;2023-03-24T05:43:39;3.92;;;2.10;;
40515;SDS011;26216;53.724;9.898;2023-03-24T05:46:05;2.30;;;1.45;;
40515;SDS011;26216;53.724;9.898;2023-03-24T05:48:31;2.75;;;1.40;;
40515;SDS011;26216;53.724;9.898;2023-03-24T05:50:57;1.95;;;1.58;;
40515;SDS011;26216;53.724;9.898;2023-03-24T05:53:23;2.53;;;1.70;;
40515;SDS011;26216;53.724;9.898;2023-03-24T05:55:49;3.85;;;1.75;;
40515;SDS011;26216;53.724;9.898;2023-03-24T05:58:18;3.08;;;1.80;;
40515;SDS011;26216;53.724;9.898;2023-03-24T06:00:45;2.92;;;1.70;;
40515;SDS011;26216;53.724;9.898;2023-03-24T06:03:11;2.30;;;1.48;;
40515;SDS011;26216;53.724;9.898;2023-03-24T06:05:38;2.22;;;1.60;;
40515;SDS011;26216;53.724;9.898;2023-03-24T06:08:04;3.10;;;1.80;;
40515;SDS011;26216;53.724;9.898;2023-03-24T06:10:29;2.00;;;1.60;;
40515;SDS011;26216;53.724;9.898;2023-03-24T06:12:56;3.17;;;1.70;;
40515;SDS011;26216;53.724;9.898;2023-03-24T06:15:22;1.67;;;1.40;;
40515;SDS011;26216;53.724;9.898;2023-03-24T06:17:51;2.97;;;1.92;;
40515;SDS011;26216;53.724;9.898;2023-03-24T06:20:19;4.05;;;1.88;;
40515;SDS011;26216;53.724;9.898;2023-03-24T06:22:45;2.75;;;1.98;;
40515;SDS011;26216;53.724;9.898;2023-03-24T06:25:12;2.97;;;2.10;;
40515;SDS011;26216;53.724;9.898;2023-03-24T06:27:43;3.53;;;2.10;;
40515;SDS011;26216;53.724;9.898;2023-03-24T06:30:16;2.58;;;1.75;;
40515;SDS011;26216;53.724;9.898;2023-03-24T06:32:42;2.33;;;1.52;;
40515;SDS011;26216;53.724;9.898;2023-03-24T06:35:11;2.50;;;1.80;;
40515;SDS011;26216;53.724;9.898;2023-03-24T06:37:41;2.00;;;1.50;;
40515;SDS011;26216;53.724;9.898;2023-03-24T06:40:07;2.30;;;1.63;;
40515;SDS011;26216;53.724;9.898;2023-03-24T06:42:39;2.20;;;1.40;;
40515;SDS011;26216;53.724;9.898;2023-03-24T06:45:05;4.20;;;1.75;;
40515;SDS011;26216;53.724;9.898;2023-03-24T06:47:32;2.28;;;1.50;;
40515;SDS011;26216;53.724;9.898;2023-03-24T06:49:58;2.50;;;1.50;;
40515;SDS011;26216;53.724;9.898;2023-03-24T06:52:24;2.08;;;1.50;;
40515;SDS011;26216;53.724;9.898;2023-03-24T06:54:52;2.50;;;1.50;;
40515;SDS011;26216;53.724;9.898;2023-03-24T06:57:18;3.55;;;1.40;;
40515;SDS011;26216;53.724;9.898;2023-03-24T06:59:43;2.05;;;1.35;;
40515;SDS011;26216;53.724;9.898;2023-03-24T07:02:10;3.33;;;1.60;;
40515;SDS011;26216;53.724;9.898;2023-03-24T07:04:36;2.20;;;1.40;;
40515;SDS011;26216;53.724;9.898;2023-03-24T07:07:02;1.63;;;1.30;;
40515;SDS011;26216;53.724;9.898;2023-03-24T07:09:29;2.75;;;1.80;;
40515;SDS011;26216;53.724;9.898;2023-03-24T07:11:55;2.17;;;1.40;;
40515;SDS011;26216;53.724;9.898;2023-03-24T07:14:21;1.63;;;1.23;;
40515;SDS011;26216;53.724;9.898;2023-03-24T07:16:50;2.00;;;1.35;;
40515;SDS011;26216;53.724;9.898;2023-03-24T07:19:17;2.58;;;1.50;;
40515;SDS011;26216;53.724;9.898;2023-03-24T07:21:43;2.55;;;1.50;;
40515;SDS011;26216;53.724;9.898;2023-03-24T07:24:14;1.77;;;1.50;;
40515;SDS011;26216;53.724;9.898;2023-03-24T07:26:43;1.85;;;1.17;;
40515;SDS011;26216;53.724;9.898;2023-03-24T07:29:29;3.20;;;1.55;;
40515;SDS011;26216;53.724;9.898;2023-03-24T07:31:55;3.10;;;1.33;;
40515;SDS011;26216;53.724;9.898;2023-03-24T07:34:26;4.30;;;1.10;;
40515;SDS011;26216;53.724;9.898;2023-03-24T07:36:52;2.17;;;1.15;;
40515;SDS011;26216;53.724;9.898;2023-03-24T07:39:19;1.73;;;0.80;;
40515;SDS011;26216;53.724;9.898;2023-03-24T07:41:45;5.07;;;1.08;;
40515;SDS011;26216;53.724;9.898;2023-03-24T07:44:11;3.30;;;1.10;;
40515;SDS011;26216;53.724;9.898;2023-03-24T07:46:37;4.20;;;1.42;;
40515;SDS011;26216;53.724;9.898;2023-03-24T07:49:03;4.95;;;1.20;;
40515;SDS011;26216;53.724;9.898;2023-03-24T07:51:31;2.95;;;1.20;;
40515;SDS011;26216;53.724;9.898;2023-03-24T07:53:58;2.47;;;1.00;;
40515;SDS011;26216;53.724;9.898;2023-03-24T07:56:25;2.67;;;1.10;;
40515;SDS011;26216;53.724;9.898;2023-03-24T07:58:51;2.33;;;0.90;;
40515;SDS011;26216;53.724;9.898;2023-03-24T08:01:17;2.88;;;1.20;;
40515;SDS011;26216;53.724;9.898;2023-03-24T08:03:43;4.57;;;1.48;;
40515;SDS011;26216;53.724;9.898;2023-03-24T08:06:09;3.47;;;1.13;;
40515;SDS011;26216;53.724;9.898;2023-03-24T08:08:35;8.07;;;1.40;;
40515;SDS011;26216;53.724;9.898;2023-03-24T08:11:02;8.75;;;1.63;;
40515;SDS011;26216;53.724;9.898;2023-03-24T08:13:28;5.85;;;1.75;;
40515;SDS011;26216;53.724;9.898;2023-03-24T08:15:54;4.97;;;1.25;;
40515;SDS011;26216;53.724;9.898;2023-03-24T08:18:21;3.83;;;1.10;;
40515;SDS011;26216;53.724;9.898;2023-03-24T08:21:08;3.95;;;1.50;;
40515;SDS011;26216;53.724;9.898;2023-03-24T08:23:34;4.82;;;1.45;;
40515;SDS011;26216;53.724;9.898;2023-03-24T08:26:01;7.35;;;2.45;;
40515;SDS011;26216;53.724;9.898;2023-03-24T08:28:27;4.35;;;1.40;;
40515;SDS011;26216;53.724;9.898;2023-03-24T08:30:53;4.43;;;1.33;;
40515;SDS011;26216;53.724;9.898;2023-03-24T08:33:18;3.70;;;1.20;;
40515;SDS011;26216;53.724;9.898;2023-03-24T08:35:45;9.73;;;2.03;;
40515;SDS011;26216;53.724;9.898;2023-03-24T08:38:11;3.35;;;1.27;;
40515;SDS011;26216;53.724;9.898;2023-03-24T08:40:39;4.25;;;1.60;;
40515;SDS011;26216;53.724;9.898;2023-03-24T08:43:07;7.10;;;2.00;;
40515;SDS011;26216;53.724;9.898;2023-03-24T08:45:36;7.03;;;1.95;;
40515;SDS011;26216;53.724;9.898;2023-03-24T08:48:03;5.40;;;1.40;;
40515;SDS011;26216;53.724;9.898;2023-03-24T08:50:35;5.78;;;1.40;;
40515;SDS011;26216;53.724;9.898;2023-03-24T08:53:02;5.43;;;1.48;;
40515;SDS011;26216;53.724;9.898;2023-03-24T08:55:29;5.43;;;1.58;;
40515;SDS011;26216;53.724;9.898;2023-03-24T08:57:55;5.45;;;1.80;;
40515;SDS011;26216;53.724;9.898;2023-03-24T09:00:21;4.55;;;1.10;;
40515;SDS011;26216;53.724;9.898;2023-03-24T09:02:48;5.30;;;1.50;;
40515;SDS011;26216;53.724;9.898;2023-03-24T09:05:17;8.00;;;2.25;;
40515;SDS011;26216;53.724;9.898;2023-03-24T09:07:54;5.45;;;1.40;;
40515;SDS011;26216;53.724;9.898;2023-03-24T09:10:23;7.68;;;1.80;;
40515;SDS011;26216;53.724;9.898;2023-03-24T09:12:53;6.32;;;1.75;;
40515;SDS011;26216;53.724;9.898;2023-03-24T09:15:20;6.72;;;1.58;;
40515;SDS011;26216;53.724;9.898;2023-03-24T09:17:48;6.28;;;1.85;;
40515;SDS011;26216;53.724;9.898;2023-03-24T09:20:25;3.85;;;1.00;;
40515;SDS011;26216;53.724;9.898;2023-03-24T09:22:53;6.50;;;1.67;;
40515;SDS011;26216;53.724;9.898;2023-03-24T09:25:22;6.38;;;1.58;;
40515;SDS011;26216;53.724;9.898;2023-03-24T09:27:51;5.50;;;1.55;;
40515;SDS011;26216;53.724;9.898;2023-03-24T09:30:17;5.25;;;1.30;;
40515;SDS011;26216;53.724;9.898;2023-03-24T09:32:44;4.75;;;1.42;;
40515;SDS011;26216;53.724;9.898;2023-03-24T09:35:12;6.22;;;1.48;;
40515;SDS011;26216;53.724;9.898;2023-03-24T09:37:43;5.30;;;1.30;;
40515;SDS011;26216;53.724;9.898;2023-03-24T09:40:54;4.60;;;1.70;;
40515;SDS011;26216;53.724;9.898;2023-03-24T09:45:54;3.10;;;1.23;;
40515;SDS011;26216;53.724;9.898;2023-03-24T09:51:12;4.97;;;1.55;;
40515;SDS011;26216;53.724;9.898;2023-03-24T09:53:49;3.08;;;1.15;;
40515;SDS011;26216;53.724;9.898;2023-03-24T09:56:24;5.05;;;1.48;;
40515;SDS011;26216;53.724;9.898;2023-03-24T10:02:08;6.13;;;1.45;;
40515;SDS011;26216;53.724;9.898;2023-03-24T10:04:39;5.55;;;1.65;;
40515;SDS011;26216;53.724;9.898;2023-03-24T10:07:07;5.35;;;1.63;;
40515;SDS011;26216;53.724;9.898;2023-03-24T10:09:43;4.18;;;1.17;;
40515;SDS011;26216;53.724;9.898;2023-03-24T10:17:46;3.38;;;1.30;;
40515;SDS011;26216;53.724;9.898;2023-03-24T10:23:03;3.72;;;1.60;;
40515;SDS011;26216;53.724;9.898;2023-03-24T10:25:55;6.07;;;1.60;;
40515;SDS011;26216;53.724;9.898;2023-03-24T10:28:43;7.13;;;1.33;;
40515;SDS011;26216;53.724;9.898;2023-03-24T10:31:15;5.40;;;1.40;;
40515;SDS011;26216;53.724;9.898;2023-03-24T10:33:45;4.63;;;1.48;;
40515;SDS011;26216;53.724;9.898;2023-03-24T10:36:15;4.05;;;1.15;;
40515;SDS011;26216;53.724;9.898;2023-03-24T10:38:42;3.55;;;1.05;;
40515;SDS011;26216;53.724;9.898;2023-03-24T10:41:15;4.45;;;1.35;;
40515;SDS011;26216;53.724;9.898;2023-03-24T10:43:44;4.63;;;1.10;;
40515;SDS011;26216;53.724;9.898;2023-03-24T10:46:15;6.78;;;1.52;;
40515;SDS011;26216;53.724;9.898;2023-03-24T10:48:48;5.88;;;1.95;;
40515;SDS011;26216;53.724;9.898;2023-03-24T10:51:16;4.60;;;1.70;;
40515;SDS011;26216;53.724;9.898;2023-03-24T10:54:13;4.82;;;1.13;;
40515;SDS011;26216;53.724;9.898;2023-03-24T10:57:05;5.82;;;2.00;;
40515;SDS011;26216;53.724;9.898;2023-03-24T11:00:00;6.63;;;1.85;;
40515;SDS011;26216;53.724;9.898;2023-03-24T11:02:44;3.88;;;1.00;;
40515;SDS011;26216;53.724;9.898;2023-03-24T11:05:24;4.70;;;1.75;;
40515;SDS011;26216;53.724;9.898;2023-03-24T11:08:10;4.72;;;1.45;;
40515;SDS011;26216;53.724;9.898;2023-03-24T11:10:56;4.88;;;1.40;;
40515;SDS011;26216;53.724;9.898;2023-03-24T11:18:35;4.53;;;1.15;;
40515;SDS011;26216;53.724;9.898;2023-03-24T11:21:01;6.82;;;1.52;;
40515;SDS011;26216;53.724;9.898;2023-03-24T11:23:31;5.05;;;1.38;;
40515;SDS011;26216;53.724;9.898;2023-03-24T11:26:04;6.68;;;1.58;;
40515;SDS011;26216;53.724;9.898;2023-03-24T11:28:35;3.67;;;1.02;;
40515;SDS011;26216;53.724;9.898;2023-03-24T11:31:06;4.33;;;1.40;;
40515;SDS011;26216;53.724;9.898;2023-03-24T11:33:35;5.63;;;1.58;;
40515;SDS011;26216;53.724;9.898;2023-03-24T11:39:03;8.07;;;2.55;;
40515;SDS011;26216;53.724;9.898;2023-03-24T11:41:41;6.50;;;1.60;;
40515;SDS011;26216;53.724;9.898;2023-03-24T11:44:28;8.00;;;2.40;;
40515;SDS011;26216;53.724;9.898;2023-03-24T11:55:50;4.72;;;1.50;;
40515;SDS011;26216;53.724;9.898;2023-03-24T11:58:42;5.63;;;1.58;;
40515;SDS011;26216;53.724;9.898;2023-03-24T12:14:46;3.90;;;1.30;;
40515;SDS011;26216;53.724;9.898;2023-03-24T12:17:37;6.97;;;1.80;;
40515;SDS011;26216;53.724;9.898;2023-03-24T12:22:51;7.20;;;1.20;;
40515;SDS011;26216;53.724;9.898;2023-03-24T12:35:36;8.77;;;2.15;;
40515;SDS011;26216;53.724;9.898;2023-03-24T12:38:40;7.53;;;1.63;;
40515;SDS011;26216;53.724;9.898;2023-03-24T12:41:29;6.15;;;1.73;;
40515;SDS011;26216;53.724;9.898;2023-03-24T12:52:43;7.25;;;1.77;;
40515;SDS011;26216;53.724;9.898;2023-03-24T12:55:38;5.30;;;1.55;;
40515;SDS011;26216;53.724;9.898;2023-03-24T13:03:57;4.45;;;1.52;;
40515;SDS011;26216;53.724;9.898;2023-03-24T13:06:49;6.32;;;1.33;;
40515;SDS011;26216;53.724;9.898;2023-03-24T13:09:52;5.65;;;1.45;;
40515;SDS011;26216;53.724;9.898;2023-03-24T13:12:59;10.27;;;2.10;;
40515;SDS011;26216;53.724;9.898;2023-03-24T13:15:46;5.78;;;1.58;;
40515;SDS011;26216;53.724;9.898;2023-03-24T13:18:30;4.10;;;1.33;;
40515;SDS011;26216;53.724;9.898;2023-03-24T13:23:48;5.65;;;1.50;;
40515;SDS011;26216;53.724;9.898;2023-03-24T13:26:36;7.22;;;1.70;;
40515;SDS011;26216;53.724;9.898;2023-03-24T13:37:37;7.07;;;1.67;;
40515;SDS011;26216;53.724;9.898;2023-03-24T13:40:21;8.80;;;2.47;;
40515;SDS011;26216;53.724;9.898;2023-03-24T13:45:41;5.28;;;1.50;;
40515;SDS011;26216;53.724;9.898;2023-03-24T13:48:18;5.38;;;2.15;;
40515;SDS011;26216;53.724;9.898;2023-03-24T13:51:17;3.10;;;1.30;;
40515;SDS011;26216;53.724;9.898;2023-03-24T14:01:40;7.47;;;1.35;;
40515;SDS011;26216;53.724;9.898;2023-03-24T14:09:23;4.43;;;1.63;;
40515;SDS011;26216;53.724;9.898;2023-03-24T14:17:39;4.35;;;1.50;;
40515;SDS011;26216;53.724;9.898;2023-03-24T14:22:40;6.30;;;1.60;;
40515;SDS011;26216;53.724;9.898;2023-03-24T14:27:42;5.38;;;1.35;;
40515;SDS011;26216;53.724;9.898;2023-03-24T14:30:27;6.55;;;2.13;;
40515;SDS011;26216;53.724;9.898;2023-03-24T14:33:02;5.25;;;1.40;;
40515;SDS011;26216;53.724;9.898;2023-03-24T14:35:35;4.47;;;1.55;;
40515;SDS011;26216;53.724;9.898;2023-03-24T14:40:42;5.13;;;1.90;;
40515;SDS011;26216;53.724;9.898;2023-03-24T14:43:24;6.28;;;1.60;;
40515;SDS011;26216;53.724;9.898;2023-03-24T14:52:03;5.40;;;1.45;;
40515;SDS011;26216;53.724;9.898;2023-03-24T14:55:11;4.25;;;1.15;;
40515;SDS011;26216;53.724;9.898;2023-03-24T14:57:37;6.15;;;1.67;;
40515;SDS011;26216;53.724;9.898;2023-03-24T15:03:18;5.63;;;1.30;;
40515;SDS011;26216;53.724;9.898;2023-03-24T15:06:16;4.65;;;1.17;;
40515;SDS011;26216;53.724;9.898;2023-03-24T15:08:45;4.00;;;1.13;;
40515;SDS011;26216;53.724;9.898;2023-03-24T15:11:19;5.05;;;1.60;;
40515;SDS011;26216;53.724;9.898;2023-03-24T15:13:53;6.15;;;1.77;;
40515;SDS011;26216;53.724;9.898;2023-03-24T15:16:25;6.03;;;1.40;;
40515;SDS011;26216;53.724;9.898;2023-03-24T15:18:54;5.90;;;1.20;;
40515;SDS011;26216;53.724;9.898;2023-03-24T15:21:40;4.70;;;1.35;;
40515;SDS011;26216;53.724;9.898;2023-03-24T15:27:32;4.88;;;1.58;;
40515;SDS011;26216;53.724;9.898;2023-03-24T15:29:43;3.72;;;1.10;;
40515;SDS011;26216;53.724;9.898;2023-03-24T15:32:19;3.28;;;1.00;;
40515;SDS011;26216;53.724;9.898;2023-03-24T15:37:19;4.18;;;1.38;;
40515;SDS011;26216;53.724;9.898;2023-03-24T15:39:55;4.57;;;1.20;;
40515;SDS011;26216;53.724;9.898;2023-03-24T15:42:21;5.68;;;1.67;;
40515;SDS011;26216;53.724;9.898;2023-03-24T15:44:50;4.20;;;1.20;;
40515;SDS011;26216;53.724;9.898;2023-03-24T15:47:21;3.88;;;1.13;;
40515;SDS011;26216;53.724;9.898;2023-03-24T15:49:51;3.83;;;1.10;;
40515;SDS011;26216;53.724;9.898;2023-03-24T15:55:07;3.60;;;1.10;;
40515;SDS011;26216;53.724;9.898;2023-03-24T15:57:42;3.33;;;1.30;;
40515;SDS011;26216;53.724;9.898;2023-03-24T16:00:13;4.75;;;0.90;;
40515;SDS011;26216;53.724;9.898;2023-03-24T16:02:51;2.88;;;0.98;;
40515;SDS011;26216;53.724;9.898;2023-03-24T16:05:28;4.15;;;1.38;;
40515;SDS011;26216;53.724;9.898;2023-03-24T16:10:37;3.60;;;1.10;;
40515;SDS011;26216;53.724;9.898;2023-03-24T16:13:14;3.60;;;1.10;;
40515;SDS011;26216;53.724;9.898;2023-03-24T16:18:28;3.28;;;1.00;;
40515;SDS011;26216;53.724;9.898;2023-03-24T16:20:57;3.55;;;1.15;;
40515;SDS011;26216;53.724;9.898;2023-03-24T16:23:24;2.65;;;1.02;;
40515;SDS011;26216;53.724;9.898;2023-03-24T16:25:51;4.03;;;1.48;;
40515;SDS011;26216;53.724;9.898;2023-03-24T16:28:18;3.15;;;0.80;;
40515;SDS011;26216;53.724;9.898;2023-03-24T16:30:48;3.60;;;1.00;;
40515;SDS011;26216;53.724;9.898;2023-03-24T16:33:17;3.42;;;1.00;;
40515;SDS011;26216;53.724;9.898;2023-03-24T16:35:44;4.38;;;1.13;;
40515;SDS011;26216;53.724;9.898;2023-03-24T16:38:11;2.90;;;0.95;;
40515;SDS011;26216;53.724;9.898;2023-03-24T16:40:44;2.78;;;0.73;;
40515;SDS011;26216;53.724;9.898;2023-03-24T16:43:14;4.75;;;1.05;;
40515;SDS011;26216;53.724;9.898;2023-03-24T16:45:40;3.17;;;0.70;;
40515;SDS011;26216;53.724;9.898;2023-03-24T16:48:09;3.10;;;0.95;;
40515;SDS011;26216;53.724;9.898;2023-03-24T16:50:40;2.95;;;0.73;;
40515;SDS011;26216;53.724;9.898;2023-03-24T16:53:09;3.35;;;0.90;;
40515;SDS011;26216;53.724;9.898;2023-03-24T16:55:37;3.35;;;0.88;;
40515;SDS011;26216;53.724;9.898;2023-03-24T16:58:06;3.42;;;0.80;;
40515;SDS011;26216;53.724;9.898;2023-03-24T17:00:33;2.95;;;0.98;;
40515;SDS011;26216;53.724;9.898;2023-03-24T17:03:04;2.55;;;1.00;;
40515;SDS011;26216;53.724;9.898;2023-03-24T17:05:42;2.08;;;0.77;;
40515;SDS011;26216;53.724;9.898;2023-03-24T17:08:13;3.42;;;0.80;;
40515;SDS011;26216;53.724;9.898;2023-03-24T17:10:41;1.60;;;0.73;;
40515;SDS011;26216;53.724;9.898;2023-03-24T17:13:09;4.18;;;1.25;;
40515;SDS011;26216;53.724;9.898;2023-03-24T17:15:42;2.15;;;0.82;;
40515;SDS011;26216;53.724;9.898;2023-03-24T17:18:08;2.25;;;0.90;;
40515;SDS011;26216;53.724;9.898;2023-03-24T17:20:35;2.92;;;0.70;;
40515;SDS011;26216;53.724;9.898;2023-03-24T17:23:04;3.45;;;1.10;;
40515;SDS011;26216;53.724;9.898;2023-03-24T17:25:34;5.03;;;1.58;;
40515;SDS011;26216;53.724;9.898;2023-03-24T17:28:00;2.80;;;0.73;;
40515;SDS011;26216;53.724;9.898;2023-03-24T17:30:27;4.63;;;1.00;;
40515;SDS011;26216;53.724;9.898;2023-03-24T17:32:54;3.15;;;1.05;;
40515;SDS011;26216;53.724;9.898;2023-03-24T17:35:22;2.85;;;0.90;;
40515;SDS011;26216;53.724;9.898;2023-03-24T17:37:49;4.40;;;1.30;;
40515;SDS011;26216;53.724;9.898;2023-03-24T17:40:18;3.67;;;0.80;;
40515;SDS011;26216;53.724;9.898;2023-03-24T17:42:45;3.83;;;1.00;;
40515;SDS011;26216;53.724;9.898;2023-03-24T17:45:13;5.10;;;1.38;;
40515;SDS011;26216;53.724;9.898;2023-03-24T17:47:41;2.63;;;0.98;;
40515;SDS011;26216;53.724;9.898;2023-03-24T17:50:07;3.75;;;1.38;;
40515;SDS011;26216;53.724;9.898;2023-03-24T17:52:35;2.17;;;0.77;;
40515;SDS011;26216;53.724;9.898;2023-03-24T17:55:02;5.93;;;1.15;;
40515;SDS011;26216;53.724;9.898;2023-03-24T17:57:29;3.72;;;1.20;;
40515;SDS011;26216;53.724;9.898;2023-03-24T17:59:55;3.83;;;1.13;;
40515;SDS011;26216;53.724;9.898;2023-03-24T18:02:22;2.88;;;0.95;;
40515;SDS011;26216;53.724;9.898;2023-03-24T18:04:48;5.22;;;0.80;;
40515;SDS011;26216;53.724;9.898;2023-03-24T18:07:14;3.10;;;1.00;;
40515;SDS011;26216;53.724;9.898;2023-03-24T18:09:41;5.25;;;1.25;;
40515;SDS011;26216;53.724;9.898;2023-03-24T18:12:07;2.03;;;0.70;;
40515;SDS011;26216;53.724;9.898;2023-03-24T18:14:34;1.77;;;0.60;;
40515;SDS011;26216;53.724;9.898;2023-03-24T18:17:00;2.35;;;0.73;;
40515;SDS011;26216;53.724;9.898;2023-03-24T18:19:27;2.15;;;0.85;;
40515;SDS011;26216;53.724;9.898;2023-03-24T18:21:53;3.33;;;0.75;;